createdAt,value
2022-11-18T00:01:01.182Z,18.54
2022-11-18T00:02:13.934Z,18.57
2022-11-18T00:03:27.663Z,18.55
2022-11-18T00:04:30.353Z,18.55
2022-11-18T00:05:43.740Z,18.54
2022-11-18T00:06:56.513Z,18.53
2022-11-18T00:08:00.204Z,18.57
2022-11-18T00:09:12.837Z,18.55
2022-11-18T00:10:26.196Z,18.55
2022-11-18T00:11:28.881Z,18.55
2022-11-18T00:12:42.180Z,18.54
2022-11-18T00:13:54.809Z,18.55
2022-11-18T00:15:08.197Z,18.53
2022-11-18T00:16:10.906Z,18.53
2022-11-18T00:17:24.174Z,18.55
2022-11-18T00:18:36.854Z,18.54
2022-11-18T00:19:40.161Z,18.51
2022-11-18T00:20:52.819Z,18.54
2022-11-18T00:22:06.156Z,18.55
2022-11-18T00:23:08.834Z,18.51
2022-11-18T00:24:32.168Z,18.54
2022-11-18T00:25:34.882Z,18.53
2022-11-18T00:26:48.182Z,18.51
2022-11-18T00:27:50.867Z,18.53
2022-11-18T00:29:04.181Z,18.51
2022-11-18T00:30:16.892Z,18.51
2022-11-18T00:31:20.164Z,18.51
2022-11-18T00:32:32.791Z,18.5
2022-11-18T00:33:46.189Z,18.48
2022-11-18T00:34:48.895Z,18.5
2022-11-18T00:36:02.677Z,18.51
2022-11-18T00:37:15.333Z,18.48
2022-11-18T00:38:18.668Z,18.51
2022-11-18T00:39:31.364Z,18.48
2022-11-18T00:40:44.668Z,18.45
2022-11-18T00:41:47.397Z,18.5
2022-11-18T00:43:00.707Z,18.48
2022-11-18T00:44:13.369Z,18.47
2022-11-18T00:45:26.679Z,18.47
2022-11-18T00:46:29.405Z,18.45
2022-11-18T00:47:42.671Z,18.44
2022-11-18T00:48:55.366Z,18.43
2022-11-18T00:49:58.673Z,18.45
2022-11-18T00:51:11.329Z,18.45
2022-11-18T00:52:24.694Z,18.45
2022-11-18T00:53:27.412Z,18.44
2022-11-18T00:54:41.185Z,18.44
2022-11-18T00:55:53.899Z,18.43
2022-11-18T00:57:07.661Z,18.44
2022-11-18T00:58:10.375Z,18.44
2022-11-18T00:59:23.681Z,18.43
2022-11-18T01:00:36.340Z,18.43
2022-11-18T01:01:39.728Z,18.44
2022-11-18T01:02:52.579Z,18.41
2022-11-18T01:04:06.262Z,18.43
2022-11-18T01:05:09.590Z,18.41
2022-11-18T01:06:23.166Z,18.41
2022-11-18T01:07:35.896Z,18.43
2022-11-18T01:08:39.711Z,18.44
2022-11-18T01:09:52.365Z,18.44
2022-11-18T01:11:05.674Z,18.44
2022-11-18T01:12:08.367Z,18.43
2022-11-18T01:13:22.204Z,18.44
2022-11-18T01:14:34.859Z,18.43
2022-11-18T01:15:38.168Z,18.41
2022-11-18T01:16:50.820Z,18.41
2022-11-18T01:18:04.302Z,18.43
2022-11-18T01:19:07.014Z,18.41
2022-11-18T01:20:20.697Z,18.43
2022-11-18T01:21:33.331Z,18.38
2022-11-18T01:22:46.701Z,18.41
2022-11-18T01:23:49.418Z,18.41
2022-11-18T01:25:02.675Z,18.4
2022-11-18T01:26:15.323Z,18.41
2022-11-18T01:27:18.736Z,18.38
2022-11-18T01:28:31.407Z,18.41
2022-11-18T01:29:44.710Z,18.41
2022-11-18T01:30:47.402Z,18.4
2022-11-18T01:32:24.413Z,18.41
2022-11-18T01:33:27.411Z,18.41
2022-11-18T01:34:20.188Z,18.41
2022-11-18T01:35:33.505Z,18.44
2022-11-18T01:36:46.130Z,18.43
2022-11-18T01:37:49.554Z,18.43
2022-11-18T01:39:02.214Z,18.43
2022-11-18T01:40:15.500Z,18.43
2022-11-18T01:41:18.209Z,18.44
2022-11-18T01:42:31.526Z,18.41
2022-11-18T01:43:44.196Z,18.44
2022-11-18T01:44:47.518Z,18.4
2022-11-18T01:46:00.160Z,18.4
2022-11-18T01:47:13.619Z,18.43
2022-11-18T01:48:26.325Z,18.38
2022-11-18T01:49:30.018Z,18.4
2022-11-18T01:50:42.673Z,18.43
2022-11-18T01:51:56.017Z,18.43
2022-11-18T01:52:58.710Z,18.41
2022-11-18T01:54:12.033Z,18.43
2022-11-18T01:55:24.673Z,18.4
2022-11-18T01:56:28.502Z,18.38
2022-11-18T01:57:41.155Z,18.4
2022-11-18T01:58:54.512Z,18.43
2022-11-18T01:59:57.221Z,18.4
2022-11-18T02:01:10.607Z,18.44
2022-11-18T02:02:43.097Z,18.41
2022-11-18T02:03:36.543Z,18.44
2022-11-18T02:04:39.250Z,18.41
2022-11-18T02:05:52.519Z,18.43
2022-11-18T02:07:05.242Z,18.43
2022-11-18T02:08:09.005Z,18.47
2022-11-18T02:09:21.674Z,18.44
2022-11-18T02:10:35.075Z,18.41
2022-11-18T02:11:37.848Z,18.45
2022-11-18T02:12:51.536Z,18.43
2022-11-18T02:14:04.241Z,18.44
2022-11-18T02:15:17.544Z,18.44
2022-11-18T02:16:20.280Z,18.43
2022-11-18T02:17:33.516Z,18.41
2022-11-18T02:18:46.315Z,18.44
2022-11-18T02:19:50.019Z,18.43
2022-11-18T02:21:02.685Z,18.41
2022-11-18T02:22:16.045Z,18.41
2022-11-18T02:23:18.759Z,18.43
2022-11-18T02:24:32.056Z,18.43
2022-11-18T02:25:44.714Z,18.41
2022-11-18T02:26:48.039Z,18.43
2022-11-18T02:28:00.689Z,18.43
2022-11-18T02:29:14.049Z,18.43
2022-11-18T02:30:16.765Z,18.4
2022-11-18T02:31:30.035Z,18.41
2022-11-18T02:32:42.725Z,18.4
2022-11-18T02:33:56.051Z,18.41
2022-11-18T02:34:58.788Z,18.4
2022-11-18T02:36:12.022Z,18.4
2022-11-18T02:37:24.707Z,18.41
2022-11-18T02:38:28.045Z,18.4
2022-11-18T02:39:40.761Z,18.37
2022-11-18T02:40:54.035Z,18.4
2022-11-18T02:41:56.786Z,18.38
2022-11-18T02:43:10.023Z,18.37
2022-11-18T02:44:22.689Z,18.38
2022-11-18T02:45:26.535Z,18.4
2022-11-18T02:46:39.182Z,18.37
2022-11-18T02:47:52.543Z,18.4
2022-11-18T02:48:55.282Z,18.38
2022-11-18T02:50:08.553Z,18.36
2022-11-18T02:51:21.224Z,18.37
2022-11-18T02:52:34.533Z,18.4
2022-11-18T02:53:37.307Z,18.37
2022-11-18T02:54:51.055Z,18.37
2022-11-18T02:56:03.721Z,18.38
2022-11-18T02:57:07.046Z,18.37
2022-11-18T02:58:19.711Z,18.38
2022-11-18T02:59:33.025Z,18.38
2022-11-18T03:00:35.741Z,18.37
2022-11-18T03:01:49.214Z,18.37
2022-11-18T03:03:01.972Z,18.34
2022-11-18T03:04:15.595Z,18.36
2022-11-18T03:05:18.301Z,18.36
2022-11-18T03:06:31.511Z,18.36
2022-11-18T03:07:43.984Z,18.38
2022-11-18T03:08:47.523Z,18.37
2022-11-18T03:09:59.943Z,18.34
2022-11-18T03:11:13.513Z,18.37
2022-11-18T03:12:16.216Z,18.37
2022-11-18T03:13:29.545Z,18.34
2022-11-18T03:14:42.201Z,18.37
2022-11-18T03:15:45.546Z,18.36
2022-11-18T03:16:58.211Z,18.36
2022-11-18T03:18:11.556Z,18.36
2022-11-18T03:19:24.223Z,18.36
2022-11-18T03:20:27.578Z,18.36
2022-11-18T03:21:40.279Z,18.4
2022-11-18T03:22:53.538Z,18.38
2022-11-18T03:23:56.298Z,18.34
2022-11-18T03:25:10.026Z,18.34
2022-11-18T03:26:22.782Z,18.36
2022-11-18T03:27:26.537Z,18.36
2022-11-18T03:28:39.223Z,18.34
2022-11-18T03:29:52.549Z,18.36
2022-11-18T03:30:55.252Z,18.36
2022-11-18T03:32:08.568Z,18.34
2022-11-18T03:33:21.237Z,18.34
2022-11-18T03:34:38.077Z,18.34
2022-11-18T03:35:40.802Z,18.36
2022-11-18T03:36:58.395Z,18.36
2022-11-18T03:38:03.300Z,18.36
2022-11-18T03:39:07.059Z,18.36
2022-11-18T03:40:19.804Z,18.36
2022-11-18T03:41:33.521Z,18.34
2022-11-18T03:42:36.408Z,18.36
2022-11-18T03:43:50.063Z,18.36
2022-11-18T03:45:02.727Z,18.34
2022-11-18T03:46:06.036Z,18.36
2022-11-18T03:47:18.740Z,18.34
2022-11-18T03:48:32.055Z,18.36
2022-11-18T03:49:44.718Z,18.36
2022-11-18T03:50:48.052Z,18.36
2022-11-18T03:52:00.725Z,18.33
2022-11-18T03:53:14.053Z,18.34
2022-11-18T03:54:36.486Z,18.34
2022-11-18T03:55:30.091Z,18.36
2022-11-18T03:56:42.744Z,18.34
2022-11-18T03:57:46.047Z,18.36
2022-11-18T03:58:58.720Z,18.36
2022-11-18T04:00:12.062Z,18.34
2022-11-18T04:01:14.791Z,18.36
2022-11-18T04:02:28.037Z,18.37
2022-11-18T04:03:40.692Z,18.37
2022-11-18T04:04:54.047Z,18.36
2022-11-18T04:05:56.789Z,18.36
2022-11-18T04:07:10.162Z,18.37
2022-11-18T04:08:22.969Z,18.36
2022-11-18T04:09:26.536Z,18.33
2022-11-18T04:10:39.212Z,18.34
2022-11-18T04:11:46.554Z,18.34
2022-11-18T04:13:04.669Z,18.34
2022-11-18T04:14:09.568Z,18.33
2022-11-18T04:15:22.205Z,18.36
2022-11-18T04:16:25.592Z,18.34
2022-11-18T04:17:38.246Z,18.34
2022-11-18T04:18:51.562Z,18.33
2022-11-18T04:20:04.236Z,18.36
2022-11-18T04:21:07.553Z,18.34
2022-11-18T04:22:20.261Z,18.33
2022-11-18T04:23:33.596Z,18.34
2022-11-18T04:24:36.303Z,18.33
2022-11-18T04:25:49.558Z,18.33
2022-11-18T04:27:02.215Z,18.31
2022-11-18T04:28:06.064Z,18.33
2022-11-18T04:29:19.030Z,18.3
2022-11-18T04:30:32.583Z,18.3
2022-11-18T04:31:35.299Z,18.34
2022-11-18T04:32:48.554Z,18.31
2022-11-18T04:34:01.223Z,18.31
2022-11-18T04:35:14.572Z,18.33
2022-11-18T04:36:17.275Z,18.33
2022-11-18T04:37:30.540Z,18.31
2022-11-18T04:38:43.225Z,18.31
2022-11-18T04:39:46.586Z,18.3
2022-11-18T04:40:59.265Z,18.3
2022-11-18T04:42:12.589Z,18.3
2022-11-18T04:43:15.314Z,18.33
2022-11-18T04:44:28.593Z,18.3
2022-11-18T04:45:41.270Z,18.31
2022-11-18T04:46:54.654Z,18.33
2022-11-18T04:48:03.080Z,18.31
2022-11-18T04:49:07.085Z,18.3
2022-11-18T04:50:19.730Z,18.34
2022-11-18T04:51:33.093Z,18.31
2022-11-18T04:52:35.794Z,18.31
2022-11-18T04:53:49.065Z,18.31
2022-11-18T04:55:01.710Z,18.31
2022-11-18T04:56:15.088Z,18.3
2022-11-18T04:57:17.830Z,18.3
2022-11-18T04:58:31.105Z,18.3
2022-11-18T04:59:43.781Z,18.3
2022-11-18T05:00:47.065Z,18.29
2022-11-18T05:01:59.721Z,18.3
2022-11-18T05:03:13.088Z,18.29
2022-11-18T05:04:15.797Z,18.3
2022-11-18T05:05:29.070Z,18.29
2022-11-18T05:06:41.778Z,18.31
2022-11-18T05:07:55.108Z,18.3
2022-11-18T05:08:57.840Z,18.31
2022-11-18T05:10:11.060Z,18.29
2022-11-18T05:11:23.819Z,18.29
2022-11-18T05:12:27.586Z,18.3
2022-11-18T05:13:40.261Z,18.27
2022-11-18T05:14:53.590Z,18.29
2022-11-18T05:15:56.313Z,18.27
2022-11-18T05:17:09.613Z,18.3
2022-11-18T05:18:22.328Z,18.29
2022-11-18T05:19:26.110Z,18.3
2022-11-18T05:20:41.587Z,18.29
2022-11-18T05:21:45.596Z,18.29
2022-11-18T05:22:58.264Z,18.29
2022-11-18T05:24:11.588Z,18.3
2022-11-18T05:25:24.272Z,18.29
2022-11-18T05:26:27.601Z,18.3
2022-11-18T05:27:40.286Z,18.31
2022-11-18T05:28:53.604Z,18.3
2022-11-18T05:29:56.306Z,18.3
2022-11-18T05:31:09.569Z,18.29
2022-11-18T05:32:22.233Z,18.29
2022-11-18T05:33:25.602Z,18.3
2022-11-18T05:34:38.252Z,18.29
2022-11-18T05:35:55.099Z,18.29
2022-11-18T05:36:58.224Z,18.27
2022-11-18T05:38:12.088Z,18.3
2022-11-18T05:39:15.070Z,18.29
2022-11-18T05:40:28.606Z,18.29
2022-11-18T05:41:41.298Z,18.3
2022-11-18T05:42:45.094Z,18.3
2022-11-18T05:43:57.768Z,18.3
2022-11-18T05:45:11.097Z,18.29
2022-11-18T05:46:23.780Z,18.27
2022-11-18T05:47:27.101Z,18.27
2022-11-18T05:48:39.780Z,18.27
2022-11-18T05:49:53.110Z,18.29
2022-11-18T05:50:55.817Z,18.27
2022-11-18T05:52:09.092Z,18.27
2022-11-18T05:53:21.759Z,18.27
2022-11-18T05:54:25.088Z,18.27
2022-11-18T05:55:37.764Z,18.24
2022-11-18T05:56:51.071Z,18.3
2022-11-18T05:57:53.731Z,18.36
2022-11-18T05:59:07.108Z,18.45
2022-11-18T06:00:19.665Z,18.55
2022-11-18T06:01:33.118Z,18.68
2022-11-18T06:02:35.745Z,18.71
2022-11-18T06:03:49.087Z,18.77
2022-11-18T06:05:01.586Z,18.87
2022-11-18T06:06:05.086Z,18.91
2022-11-18T06:07:17.913Z,18.98
2022-11-18T06:08:31.070Z,19.02
2022-11-18T06:09:33.622Z,19.12
2022-11-18T06:10:47.083Z,19.15
2022-11-18T06:11:59.542Z,19.2
2022-11-18T06:13:12.566Z,19.22
2022-11-18T06:14:15.075Z,19.22
2022-11-18T06:15:28.727Z,19.26
2022-11-18T06:16:41.275Z,19.25
2022-11-18T06:17:44.570Z,19.19
2022-11-18T06:18:57.027Z,19.22
2022-11-18T06:20:10.074Z,19.23
2022-11-18T06:21:12.591Z,19.27
2022-11-18T06:22:46.705Z,19.33
2022-11-18T06:23:39.493Z,19.42
2022-11-18T06:24:41.976Z,19.46
2022-11-18T06:25:55.115Z,19.55
2022-11-18T06:27:07.491Z,19.59
2022-11-18T06:28:20.619Z,19.66
2022-11-18T06:29:27.376Z,19.73
2022-11-18T06:30:41.070Z,19.81
2022-11-18T06:31:43.513Z,19.86
2022-11-18T06:32:56.585Z,19.91
2022-11-18T06:34:08.979Z,19.97
2022-11-18T06:35:12.114Z,20.03
2022-11-18T06:36:24.465Z,20.07
2022-11-18T06:37:37.590Z,20.13
2022-11-18T06:38:49.942Z,20.15
2022-11-18T06:39:53.121Z,20.17
2022-11-18T06:41:05.454Z,20.22
2022-11-18T06:42:18.621Z,20.24
2022-11-18T06:43:21.056Z,20.28
2022-11-18T06:44:54.157Z,20.34
2022-11-18T06:45:46.824Z,20.37
2022-11-18T06:46:49.230Z,20.39
2022-11-18T06:48:02.610Z,20.45
2022-11-18T06:49:15.239Z,20.48
2022-11-18T06:50:28.609Z,20.49
2022-11-18T06:51:31.043Z,20.52
2022-11-18T06:52:44.131Z,20.55
2022-11-18T06:53:56.423Z,20.58
2022-11-18T06:54:59.603Z,20.61
2022-11-18T06:56:11.908Z,20.64
2022-11-18T06:57:25.135Z,20.65
2022-11-18T06:58:37.435Z,20.69
2022-11-18T06:59:40.689Z,20.68
2022-11-18T07:00:53.020Z,20.69
2022-11-18T07:02:06.139Z,20.73
2022-11-18T07:03:08.591Z,20.75
2022-11-18T07:04:21.620Z,20.75
2022-11-18T07:05:33.959Z,20.78
2022-11-18T07:06:47.138Z,20.78
2022-11-18T07:07:49.581Z,20.8
2022-11-18T07:09:02.628Z,20.82
2022-11-18T07:10:14.963Z,20.85
2022-11-18T07:11:18.128Z,20.86
2022-11-18T07:12:30.457Z,20.88
2022-11-18T07:13:44.085Z,20.88
2022-11-18T07:14:46.605Z,20.88
2022-11-18T07:15:59.621Z,20.9
2022-11-18T07:17:11.902Z,20.9
2022-11-18T07:18:25.142Z,20.95
2022-11-18T07:19:31.453Z,20.92
2022-11-18T07:20:38.604Z,20.93
2022-11-18T07:21:50.913Z,20.95
2022-11-18T07:23:04.141Z,20.96
2022-11-18T07:24:06.511Z,20.96
2022-11-18T07:25:19.706Z,21.0
2022-11-18T07:26:31.980Z,21.0
2022-11-18T07:27:35.158Z,21.0
2022-11-18T07:28:47.461Z,21.03
2022-11-18T07:30:00.638Z,21.04
2022-11-18T07:31:03.015Z,21.04
2022-11-18T07:32:16.140Z,21.03
2022-11-18T07:33:28.448Z,21.04
2022-11-18T07:34:41.593Z,21.09
2022-11-18T07:35:44.033Z,21.07
2022-11-18T07:36:57.142Z,21.09
2022-11-18T07:38:09.389Z,21.11
2022-11-18T07:39:12.935Z,21.13
2022-11-18T07:40:25.328Z,21.13
2022-11-18T07:41:38.638Z,21.17
2022-11-18T07:42:51.017Z,21.19
2022-11-18T07:44:00.067Z,21.17
2022-11-18T07:45:03.153Z,21.2
2022-11-18T07:46:16.123Z,21.21
2022-11-18T07:47:28.354Z,21.26
2022-11-18T07:48:31.647Z,21.24
2022-11-18T07:49:43.938Z,21.27
2022-11-18T07:50:57.132Z,21.29
2022-11-18T07:52:09.366Z,21.3
2022-11-18T07:53:12.661Z,21.31
2022-11-18T07:54:24.954Z,21.33
2022-11-18T07:55:38.135Z,21.34
2022-11-18T07:56:40.574Z,21.37
2022-11-18T07:57:54.096Z,21.4
2022-11-18T07:59:06.372Z,21.4
2022-11-18T08:00:19.656Z,21.4
2022-11-18T08:01:22.026Z,21.4
2022-11-18T08:02:35.102Z,21.4
2022-11-18T08:03:47.326Z,21.44
2022-11-18T08:04:50.663Z,21.44
2022-11-18T08:06:03.104Z,21.48
2022-11-18T08:07:16.161Z,21.47
2022-11-18T08:08:28.175Z,21.48
2022-11-18T08:09:31.670Z,21.48
2022-11-18T08:10:43.971Z,21.51
2022-11-18T08:11:57.132Z,21.53
2022-11-18T08:12:59.458Z,21.54
2022-11-18T08:14:12.624Z,21.54
2022-11-18T08:15:24.842Z,21.57
2022-11-18T08:16:28.301Z,21.57
2022-11-18T08:17:40.519Z,21.58
2022-11-18T08:18:53.635Z,21.61
2022-11-18T08:19:56.017Z,21.65
2022-11-18T08:21:09.155Z,21.65
2022-11-18T08:22:21.384Z,21.7
2022-11-18T08:23:40.379Z,21.72
2022-11-18T08:24:44.313Z,21.71
2022-11-18T08:25:47.619Z,21.77
2022-11-18T08:26:59.812Z,21.8
2022-11-18T08:28:13.188Z,21.81
2022-11-18T08:29:20.281Z,21.82
2022-11-18T08:30:26.734Z,21.85
2022-11-18T08:31:38.994Z,21.88
2022-11-18T08:32:52.170Z,21.91
2022-11-18T08:33:54.534Z,21.94
2022-11-18T08:35:11.023Z,21.94
2022-11-18T08:36:13.771Z,21.95
2022-11-18T08:37:27.640Z,21.99
2022-11-18T08:38:39.879Z,22.01
2022-11-18T08:39:52.660Z,22.01
2022-11-18T08:40:54.933Z,22.03
2022-11-18T08:42:08.135Z,22.06
2022-11-18T08:43:20.290Z,22.06
2022-11-18T08:44:23.641Z,22.11
2022-11-18T08:45:35.787Z,22.12
2022-11-18T08:46:48.653Z,22.13
2022-11-18T08:48:00.787Z,22.16
2022-11-18T08:49:04.122Z,22.18
2022-11-18T08:50:16.338Z,22.19
2022-11-18T08:51:29.142Z,22.21
2022-11-18T08:52:31.430Z,22.22
2022-11-18T08:53:44.625Z,22.25
2022-11-18T08:54:56.839Z,22.28
2022-11-18T08:56:09.631Z,22.28
2022-11-18T08:57:11.999Z,22.29
2022-11-18T08:58:25.143Z,22.26
2022-11-18T08:59:37.307Z,22.29
2022-11-18T09:00:50.153Z,22.32
2022-11-18T09:01:52.601Z,22.32
2022-11-18T09:03:05.633Z,22.35
2022-11-18T09:04:17.770Z,22.35
2022-11-18T09:05:20.645Z,22.35
2022-11-18T09:06:32.839Z,22.36
2022-11-18T09:07:46.184Z,22.35
2022-11-18T09:09:03.455Z,22.35
2022-11-18T09:10:09.137Z,22.38
2022-11-18T09:11:11.387Z,22.39
2022-11-18T09:12:24.131Z,22.41
2022-11-18T09:14:14.404Z,22.39
2022-11-18T09:15:14.210Z,22.43
2022-11-18T09:15:57.534Z,22.46
2022-11-18T09:17:00.645Z,22.46
2022-11-18T09:18:12.791Z,22.5
2022-11-18T09:19:46.151Z,22.5
2022-11-18T09:20:29.154Z,22.52
2022-11-18T09:21:41.328Z,22.53
2022-11-18T09:22:54.628Z,22.53
2022-11-18T09:23:56.943Z,22.56
2022-11-18T09:25:10.172Z,22.56
2022-11-18T09:26:22.286Z,22.57
2022-11-18T09:27:35.150Z,22.56
2022-11-18T09:28:47.120Z,22.6
2022-11-18T09:31:16.674Z,22.6
2022-11-18T09:32:09.120Z,22.63
2022-11-18T09:33:22.186Z,22.63
2022-11-18T09:34:43.885Z,22.67
2022-11-18T09:35:38.175Z,22.72
2022-11-18T09:36:59.832Z,22.74
2022-11-18T09:38:03.198Z,22.76
2022-11-18T09:39:05.450Z,22.8
2022-11-18T09:40:18.171Z,22.84
2022-11-18T09:41:30.418Z,22.86
2022-11-18T09:42:43.217Z,22.93
2022-11-18T09:43:45.684Z,22.91
2022-11-18T09:44:58.799Z,22.96
2022-11-18T09:46:10.940Z,22.97
2022-11-18T09:47:23.723Z,22.99
2022-11-18T09:48:25.934Z,22.97
2022-11-18T09:49:38.709Z,23.01
2022-11-18T09:50:51.147Z,23.01
2022-11-18T09:51:54.702Z,23.04
2022-11-18T09:53:06.840Z,23.07
2022-11-18T09:54:20.134Z,23.1
2022-11-18T09:55:32.446Z,23.1
2022-11-18T09:56:35.749Z,23.11
2022-11-18T09:57:48.248Z,23.14
2022-11-18T09:59:01.180Z,23.2
2022-11-18T10:00:03.446Z,23.21
2022-11-18T10:01:16.701Z,23.24
2022-11-18T10:02:28.832Z,23.28
2022-11-18T10:03:41.710Z,23.3
2022-11-18T10:04:43.983Z,23.32
2022-11-18T10:05:56.795Z,23.37
2022-11-18T10:07:08.941Z,23.35
2022-11-18T10:08:12.216Z,23.38
2022-11-18T10:09:24.278Z,23.39
2022-11-18T10:10:37.577Z,23.41
2022-11-18T10:11:52.154Z,23.42
2022-11-18T10:12:55.703Z,23.47
2022-11-18T10:14:07.788Z,23.48
2022-11-18T10:15:10.708Z,23.52
2022-11-18T10:16:22.791Z,23.55
2022-11-18T10:17:35.682Z,23.55
2022-11-18T10:19:00.781Z,23.56
2022-11-18T10:19:54.680Z,23.58
2022-11-18T10:21:06.769Z,23.61
2022-11-18T10:22:16.786Z,23.61
2022-11-18T10:23:21.943Z,23.61
2022-11-18T10:24:34.717Z,23.65
2022-11-18T10:25:46.806Z,23.65
2022-11-18T10:26:49.707Z,23.66
2022-11-18T10:28:01.757Z,23.68
2022-11-18T10:29:14.700Z,23.68
2022-11-18T10:30:16.949Z,23.69
2022-11-18T10:31:29.724Z,23.69
2022-11-18T10:32:41.787Z,23.71
2022-11-18T10:33:54.830Z,23.69
2022-11-18T10:34:57.095Z,23.71
2022-11-18T10:36:10.232Z,23.71
2022-11-18T10:37:34.504Z,23.69
2022-11-18T10:38:29.234Z,23.72
2022-11-18T10:39:41.250Z,23.72
2022-11-18T10:40:44.202Z,23.74
2022-11-18T10:41:56.319Z,23.74
2022-11-18T10:43:09.239Z,23.74
2022-11-18T10:44:21.169Z,23.74
2022-11-18T10:45:24.220Z,23.76
2022-11-18T10:46:36.175Z,23.76
2022-11-18T10:47:49.213Z,23.78
2022-11-18T10:48:51.448Z,23.79
2022-11-18T10:50:13.915Z,23.81
2022-11-18T10:51:16.257Z,23.81
2022-11-18T10:52:29.252Z,23.81
2022-11-18T10:53:31.475Z,23.82
2022-11-18T10:54:44.244Z,23.82
2022-11-18T10:55:56.315Z,23.82
2022-11-18T10:57:09.725Z,23.81
2022-11-18T10:58:11.941Z,23.81
2022-11-18T10:59:25.237Z,23.81
2022-11-18T11:00:37.330Z,23.81
2022-11-18T11:01:40.270Z,23.81
2022-11-18T11:02:52.699Z,23.79
2022-11-18T11:04:05.703Z,23.81
2022-11-18T11:05:07.941Z,23.78
2022-11-18T11:06:20.762Z,23.75
2022-11-18T11:07:32.972Z,23.78
2022-11-18T11:08:45.735Z,23.78
2022-11-18T11:09:47.963Z,23.76
2022-11-18T11:11:00.726Z,23.75
2022-11-18T11:12:12.803Z,23.79
2022-11-18T11:13:15.774Z,23.75
2022-11-18T11:14:28.392Z,23.75
2022-11-18T11:15:41.236Z,23.76
2022-11-18T11:16:53.247Z,23.76
2022-11-18T11:17:56.287Z,23.78
2022-11-18T11:19:08.494Z,23.75
2022-11-18T11:20:21.214Z,23.78
2022-11-18T11:21:23.361Z,23.75
2022-11-18T11:22:36.247Z,23.75
2022-11-18T11:23:48.276Z,23.76
2022-11-18T11:25:01.215Z,23.72
2022-11-18T11:28:29.007Z,23.72
2022-11-18T11:29:31.158Z,23.72
2022-11-18T11:30:53.724Z,23.68
2022-11-18T11:31:56.012Z,23.71
2022-11-18T11:33:08.713Z,23.72
2022-11-18T11:34:10.899Z,23.75
2022-11-18T11:35:25.234Z,23.74
2022-11-18T11:36:37.339Z,23.75
2022-11-18T11:37:40.252Z,23.79
2022-11-18T11:38:52.317Z,23.81
2022-11-18T11:40:05.217Z,23.83
2022-11-18T11:41:17.320Z,23.85
2022-11-18T11:42:20.256Z,23.88
2022-11-18T11:43:32.333Z,23.88
2022-11-18T11:44:45.248Z,23.9
2022-11-18T11:45:47.422Z,23.9
2022-11-18T11:47:00.238Z,23.9
2022-11-18T11:48:12.309Z,23.93
2022-11-18T11:49:25.243Z,23.95
2022-11-18T11:50:27.485Z,23.99
2022-11-18T11:51:40.251Z,24.0
2022-11-18T11:52:52.311Z,24.03
2022-11-18T11:54:05.221Z,24.05
2022-11-18T11:55:07.435Z,24.06
2022-11-18T11:56:22.944Z,24.1
2022-11-18T11:57:25.348Z,24.14
2022-11-18T11:58:38.384Z,24.16
2022-11-18T11:59:50.450Z,24.16
2022-11-18T12:01:03.251Z,24.17
2022-11-18T12:02:05.441Z,24.17
2022-11-18T12:03:27.782Z,24.16
2022-11-18T12:04:29.973Z,24.16
2022-11-18T12:05:32.750Z,24.11
2022-11-18T12:06:44.799Z,24.1
2022-11-18T12:07:58.267Z,24.05
2022-11-18T12:09:10.551Z,24.05
2022-11-18T12:10:14.749Z,24.0
2022-11-18T12:11:26.824Z,23.98
2022-11-18T12:12:39.725Z,23.96
2022-11-18T12:13:41.966Z,23.93
2022-11-18T12:14:54.765Z,23.89
2022-11-18T12:16:06.843Z,23.89
2022-11-18T12:17:19.733Z,23.86
2022-11-18T12:18:21.977Z,23.86
2022-11-18T12:19:34.746Z,23.79
2022-11-18T12:20:56.521Z,23.81
2022-11-18T12:21:49.763Z,23.81
2022-11-18T12:23:01.792Z,23.79
2022-11-18T12:24:14.767Z,23.78
2022-11-18T12:25:26.841Z,23.78
2022-11-18T12:26:29.746Z,23.76
2022-11-18T12:27:41.871Z,23.76
2022-11-18T12:28:54.756Z,23.76
2022-11-18T12:29:56.935Z,23.78
2022-11-18T12:31:09.735Z,23.75
2022-11-18T12:32:21.768Z,23.79
2022-11-18T12:33:34.766Z,23.78
2022-11-18T12:34:36.931Z,23.78
2022-11-18T12:35:49.767Z,23.76
2022-11-18T12:37:01.852Z,23.76
2022-11-18T12:38:14.747Z,23.79
2022-11-18T12:39:17.360Z,23.76
2022-11-18T12:40:30.737Z,23.79
2022-11-18T12:41:42.848Z,23.79
2022-11-18T12:42:45.748Z,23.82
2022-11-18T12:43:57.823Z,23.83
2022-11-18T12:45:11.280Z,23.86
2022-11-18T12:46:13.524Z,23.88
2022-11-18T12:47:26.244Z,23.86
2022-11-18T12:48:38.131Z,23.88
2022-11-18T12:49:50.797Z,23.88
2022-11-18T12:50:53.021Z,23.89
2022-11-18T12:52:05.780Z,23.9
2022-11-18T12:53:17.856Z,23.89
2022-11-18T12:54:30.796Z,23.93
2022-11-18T12:55:33.019Z,23.9
2022-11-18T12:56:45.751Z,23.93
2022-11-18T12:57:57.835Z,23.9
2022-11-18T12:59:00.768Z,23.9
2022-11-18T13:00:12.802Z,23.9
2022-11-18T13:01:25.825Z,23.92
2022-11-18T13:02:38.013Z,23.89
2022-11-18T13:03:40.764Z,23.89
2022-11-18T13:04:53.311Z,23.9
2022-11-18T13:06:06.299Z,23.9
2022-11-18T13:07:08.541Z,23.9
2022-11-18T13:08:21.248Z,23.89
2022-11-18T13:09:33.295Z,23.9
2022-11-18T13:10:47.133Z,23.92
2022-11-18T13:11:51.658Z,23.93
2022-11-18T13:13:04.776Z,24.02
2022-11-18T13:14:16.787Z,24.05
2022-11-18T13:15:19.968Z,24.11
2022-11-18T13:16:35.522Z,24.14
2022-11-18T13:17:40.791Z,24.19
2022-11-18T13:18:52.752Z,24.2
2022-11-18T13:20:05.761Z,24.2
2022-11-18T13:21:07.938Z,24.23
2022-11-18T13:22:20.799Z,24.2
2022-11-18T13:23:32.818Z,24.2
2022-11-18T13:24:45.782Z,24.2
2022-11-18T13:25:47.898Z,24.17
2022-11-18T13:27:00.795Z,24.19
2022-11-18T13:28:12.815Z,24.19
2022-11-18T13:29:16.491Z,24.16
2022-11-18T13:30:28.753Z,24.14
2022-11-18T13:31:41.795Z,24.13
2022-11-18T13:32:43.991Z,24.09
2022-11-18T13:33:56.845Z,24.09
2022-11-18T13:35:08.922Z,24.06
2022-11-18T13:36:22.257Z,24.06
2022-11-18T13:37:24.431Z,23.99
2022-11-18T13:38:37.270Z,24.0
2022-11-18T13:39:49.477Z,23.98
2022-11-18T13:41:02.267Z,23.92
2022-11-18T13:42:04.474Z,23.92
2022-11-18T13:43:17.388Z,23.9
2022-11-18T13:44:29.427Z,23.86
2022-11-18T13:45:32.263Z,23.83
2022-11-18T13:46:44.253Z,23.81
2022-11-18T13:47:57.275Z,23.78
2022-11-18T13:49:09.427Z,23.76
2022-11-18T13:50:12.276Z,23.74
2022-11-18T13:51:24.322Z,23.71
2022-11-18T13:52:37.292Z,23.71
2022-11-18T13:53:49.356Z,23.68
2022-11-18T13:54:52.272Z,23.65
2022-11-18T13:56:04.347Z,23.62
2022-11-18T13:57:17.291Z,23.61
2022-11-18T13:58:20.497Z,23.58
2022-11-18T13:59:33.670Z,23.56
2022-11-18T14:00:46.157Z,23.54
2022-11-18T14:01:59.313Z,23.52
2022-11-18T14:03:01.462Z,23.51
2022-11-18T14:04:14.283Z,23.48
2022-11-18T14:05:26.438Z,23.48
2022-11-18T14:06:29.295Z,23.45
2022-11-18T14:07:41.514Z,23.44
2022-11-18T14:08:54.286Z,23.44
2022-11-18T14:10:06.505Z,23.44
2022-11-18T14:11:09.477Z,23.39
2022-11-18T14:12:31.093Z,23.39
2022-11-18T14:13:34.297Z,23.38
2022-11-18T14:14:46.322Z,23.39
2022-11-18T14:15:49.261Z,23.39
2022-11-18T14:17:01.434Z,23.47
2022-11-18T14:18:14.288Z,23.55
2022-11-18T14:19:17.052Z,23.64
2022-11-18T14:20:30.271Z,23.69
2022-11-18T14:21:42.363Z,23.81
2022-11-18T14:22:55.296Z,23.9
2022-11-18T14:23:57.606Z,23.98
2022-11-18T14:25:10.279Z,24.06
2022-11-18T14:26:31.906Z,24.1
2022-11-18T14:27:34.798Z,24.16
2022-11-18T14:28:37.023Z,24.2
2022-11-18T14:29:50.280Z,24.2
2022-11-18T14:31:22.010Z,24.25
2022-11-18T14:32:05.284Z,24.27
2022-11-18T14:33:17.310Z,24.32
2022-11-18T14:34:30.318Z,24.29
2022-11-18T14:35:34.692Z,24.29
2022-11-18T14:36:47.827Z,24.26
2022-11-18T14:38:15.871Z,24.25
2022-11-18T14:39:26.282Z,24.25
2022-11-18T14:40:19.160Z,24.27
2022-11-18T14:41:22.204Z,24.29
2022-11-18T14:42:34.772Z,24.3
2022-11-18T14:43:47.556Z,24.32
2022-11-18T14:45:00.287Z,24.33
2022-11-18T14:46:02.369Z,24.34
2022-11-18T14:47:15.330Z,24.36
2022-11-18T14:48:32.257Z,24.39
2022-11-18T14:49:35.832Z,24.4
2022-11-18T14:50:47.785Z,24.4
2022-11-18T14:51:50.827Z,24.43
2022-11-18T14:53:02.817Z,24.41
2022-11-18T14:54:20.773Z,24.44
2022-11-18T14:55:17.725Z,24.43
2022-11-18T14:56:30.813Z,24.43
2022-11-18T14:57:42.844Z,24.4
2022-11-18T14:58:55.974Z,24.37
2022-11-18T14:59:58.193Z,24.34
2022-11-18T15:01:10.890Z,24.32
2022-11-18T15:02:23.005Z,24.25
2022-11-18T15:03:25.929Z,24.14
2022-11-18T15:04:38.141Z,24.07
2022-11-18T15:05:50.804Z,24.0
2022-11-18T15:07:02.984Z,23.9
2022-11-18T15:08:05.814Z,23.82